Time;durP1;ratioP1;P1;durP2;ratioP2;P2;SDS_P1;SDS_P2;PMS_P1;PMS_P2;Temp;Humidity;BMP_temperature;BMP_pressure;BME280_temperature;BME280_humidity;BME280_pressure;Samples;Min_cycle;Max_cycle;Signal;HPM_P1;HPM_P2
2023/11/08 00:01:01;;;;;;;2.90;1.50;;;;;;;8.25;100.00;100272.19;5042612;28;20763;-78
2023/11/08 00:03:28;;;;;;;1.48;1.33;;;;;;;8.22;100.00;100266.09;5047840;28;20060;-79
2023/11/08 00:05:55;;;;;;;1.85;1.50;;;;;;;8.27;100.00;100264.34;5044460;28;20051;-76
2023/11/08 00:08:21;;;;;;;3.90;1.48;;;;;;;8.31;100.00;100270.41;5038773;28;20556;-77
2023/11/08 00:10:49;;;;;;;4.80;1.40;;;;;;;8.31;100.00;100259.97;5040251;28;20103;-76
2023/11/08 00:13:20;;;;;;;4.60;2.10;;;;;;;8.32;100.00;100257.34;5045989;28;20164;-81
2023/11/08 00:15:48;;;;;;;3.72;1.42;;;;;;;8.37;99.71;100267.75;5039431;28;20049;-80
2023/11/08 00:18:15;;;;;;;2.78;1.92;;;;;;;8.39;99.84;100260.78;5043614;28;20511;-77
2023/11/08 00:20:42;;;;;;;2.78;1.30;;;;;;;8.43;99.67;100263.38;5029089;28;20728;-77
2023/11/08 00:23:11;;;;;;;2.83;1.58;;;;;;;8.47;99.25;100269.44;5026794;28;20141;-78
2023/11/08 00:25:38;;;;;;;4.00;1.40;;;;;;;8.54;99.07;100275.50;5029930;28;20087;-76
2023/11/08 00:28:04;;;;;;;1.50;1.40;;;;;;;8.56;98.92;100272.00;5043448;28;20120;-79
2023/11/08 00:30:30;;;;;;;8.95;2.47;;;;;;;8.58;98.70;100264.19;5040413;28;20133;-83
2023/11/08 00:32:57;;;;;;;7.03;1.63;;;;;;;8.59;99.09;100268.50;5038684;28;20037;-78
2023/11/08 00:35:24;;;;;;;1.92;1.65;;;;;;;8.60;98.55;100272.84;5040230;28;20045;-79
2023/11/08 00:37:50;;;;;;;3.50;1.83;;;;;;;8.60;98.57;100270.25;5037534;28;20037;-81
2023/11/08 00:40:19;;;;;;;1.70;1.42;;;;;;;8.63;98.69;100270.25;5036232;28;20040;-76
2023/11/08 00:42:46;;;;;;;2.15;1.40;;;;;;;8.64;98.61;100278.91;5020596;28;20049;-77
2023/11/08 00:45:12;;;;;;;3.33;2.05;;;;;;;8.67;98.16;100276.28;5038966;28;20069;-78
2023/11/08 00:47:39;;;;;;;3.60;1.88;;;;;;;8.70;98.01;100268.44;5041840;28;20672;-77
2023/11/08 00:50:06;;;;;;;2.65;1.55;;;;;;;8.69;98.06;100272.78;5037048;28;20499;-79
2023/11/08 00:52:34;;;;;;;6.97;2.92;;;;;;;8.73;97.89;100279.69;5026302;28;20485;-78
2023/11/08 00:55:01;;;;;;;5.07;1.70;;;;;;;8.69;98.05;100277.16;5039140;28;20143;-77
2023/11/08 00:57:30;;;;;;;2.88;2.00;;;;;;;8.73;97.97;100281.47;5036004;28;20074;-85
2023/11/08 00:59:56;;;;;;;4.13;1.90;;;;;;;8.72;98.10;100280.59;5037905;28;20156;-78
2023/11/08 01:02:23;;;;;;;2.67;1.77;;;;;;;8.71;98.24;100276.25;5043499;28;20069;-79
2023/11/08 01:04:49;;;;;;;3.28;1.73;;;;;;;8.73;98.67;100273.63;5036874;28;20502;-77
2023/11/08 01:07:17;;;;;;;2.90;2.20;;;;;;;8.69;98.84;100272.78;5021573;28;20434;-80
2023/11/08 01:09:44;;;;;;;5.93;2.70;;;;;;;8.67;98.88;100274.56;5038434;28;20118;-82
2023/11/08 01:12:10;;;;;;;6.53;2.05;;;;;;;8.69;98.79;100278.00;5034209;28;20048;-79
2023/11/08 01:14:37;;;;;;;6.03;2.47;;;;;;;8.67;98.92;100271.94;5042467;28;20512;-77
2023/11/08 01:17:04;;;;;;;4.38;2.28;;;;;;;8.63;99.03;100274.56;5044251;28;20052;-78
2023/11/08 01:19:31;;;;;;;6.80;2.60;;;;;;;8.61;98.92;100270.22;5042603;28;20432;-79
2023/11/08 01:21:57;;;;;;;6.25;2.65;;;;;;;8.64;98.80;100281.53;5020059;28;20053;-79
2023/11/08 01:24:24;;;;;;;5.93;2.78;;;;;;;8.62;98.73;100273.72;5040068;28;20041;-82
2023/11/08 01:26:51;;;;;;;5.65;3.20;;;;;;;8.62;98.93;100278.94;5041241;28;20780;-79
2023/11/08 01:29:18;;;;;;;8.68;3.88;;;;;;;8.62;98.61;100271.09;5038873;28;20037;-78
2023/11/08 01:31:47;;;;;;;5.50;2.90;;;;;;;8.64;98.83;100268.47;5020693;28;20158;-78
2023/11/08 01:34:14;;;;;;;5.15;3.08;;;;;;;8.60;99.06;100272.84;5037398;28;20108;-78
2023/11/08 01:36:40;;;;;;;5.00;3.65;;;;;;;8.62;98.76;100268.50;5043172;28;20079;-78
2023/11/08 01:39:07;;;;;;;7.35;5.20;;;;;;;8.69;98.46;100283.22;5044400;28;20075;-77
2023/11/08 01:41:33;;;;;;;4.60;3.83;;;;;;;8.67;98.85;100276.28;5025175;28;20045;-83
2023/11/08 01:44:00;;;;;;;4.22;3.65;;;;;;;8.66;99.62;100285.00;5029123;28;20092;-77
2023/11/08 01:46:27;;;;;;;8.77;5.63;;;;;;;8.65;99.46;100278.03;5042383;28;20083;-81
2023/11/08 01:48:55;;;;;;;6.65;4.38;;;;;;;8.70;99.71;100281.50;5037708;28;20053;-77
2023/11/08 01:51:23;;;;;;;5.45;3.67;;;;;;;8.70;99.23;100278.88;5023556;28;20051;-79
2023/11/08 01:53:52;;;;;;;5.13;3.92;;;;;;;8.70;99.41;100289.31;5042129;28;20470;-77
2023/11/08 01:56:19;;;;;;;7.35;3.97;;;;;;;8.73;99.42;100287.53;5041249;28;20497;-80
2023/11/08 01:58:47;;;;;;;4.75;3.83;;;;;;;8.71;99.13;100284.09;5040146;28;20037;-79
2023/11/08 02:01:14;;;;;;;9.70;3.35;;;;;;;8.73;99.25;100287.53;5030377;28;20048;-78
2023/11/08 02:03:42;;;;;;;4.45;3.50;;;;;;;8.74;99.56;100291.88;5032984;28;20102;-76
2023/11/08 02:06:12;;;;;;;4.60;3.95;;;;;;;8.78;98.98;100284.91;5035841;28;20517;-81
2023/11/08 02:08:41;;;;;;;3.85;2.83;;;;;;;8.75;99.49;100290.16;5010736;28;20092;-81
2023/11/08 02:11:11;;;;;;;5.13;3.70;;;;;;;8.77;99.27;100286.66;5034744;28;20128;-79
2023/11/08 02:13:38;;;;;;;4.45;3.28;;;;;;;8.77;99.01;100291.88;5037589;28;20081;-77
2023/11/08 02:16:05;;;;;;;7.05;3.20;;;;;;;8.76;99.02;100276.19;5038470;28;20108;-76
2023/11/08 02:18:32;;;;;;;4.95;3.55;;;;;;;8.77;98.69;100281.44;5024517;28;20055;-81
2023/11/08 02:21:00;;;;;;;14.23;3.72;;;;;;;8.81;98.86;100278.78;5040652;28;20041;-79
2023/11/08 02:23:27;;;;;;;2.90;2.63;;;;;;;8.82;98.77;100281.38;5044099;28;20112;-82
2023/11/08 02:25:54;;;;;;;5.20;3.53;;;;;;;8.82;99.04;100284.00;5038177;28;20396;-78
2023/11/08 02:28:22;;;;;;;10.27;3.22;;;;;;;8.76;99.63;100291.88;5027190;28;20049;-77
2023/11/08 02:30:54;;;;;;;3.53;3.22;;;;;;;8.79;100.00;100284.03;5039821;28;20057;-80
2023/11/08 02:33:28;;;;;;;7.65;3.85;;;;;;;8.74;100.00;100286.66;5041130;28;20033;-77
2023/11/08 02:35:57;;;;;;;5.43;3.50;;;;;;;8.70;100.00;100277.13;5040430;28;20462;-81
2023/11/08 02:38:23;;;;;;;6.50;3.63;;;;;;;8.74;100.00;100285.81;5035396;28;20048;-76
2023/11/08 02:40:51;;;;;;;3.70;3.40;;;;;;;8.71;100.00;100289.31;5034215;28;20052;-79
2023/11/08 02:43:18;;;;;;;3.80;3.40;;;;;;;8.66;100.00;100278.03;5033476;28;20040;-77
2023/11/08 02:45:45;;;;;;;3.40;3.20;;;;;;;8.65;100.00;100276.28;5023706;28;20045;-79
2023/11/08 02:48:11;;;;;;;6.82;5.03;;;;;;;8.66;100.00;100280.63;5057928;28;20037;-79
2023/11/08 02:50:39;;;;;;;7.28;4.57;;;;;;;8.65;100.00;100281.50;5036973;28;20041;-78
2023/11/08 02:53:06;;;;;;;6.70;3.47;;;;;;;8.67;100.00;100285.00;5038074;28;20076;-78
2023/11/08 02:55:35;;;;;;;7.93;3.83;;;;;;;8.69;100.00;100278.00;5019061;28;20052;-77
2023/11/08 02:58:02;;;;;;;4.80;4.30;;;;;;;8.69;100.00;100272.78;5032060;28;20045;-79
2023/11/08 03:00:28;;;;;;;6.22;4.07;;;;;;;8.66;100.00;100272.81;5040618;28;20040;-81
2023/11/08 03:02:57;;;;;;;4.20;3.80;;;;;;;8.66;100.00;100277.19;5034197;28;20036;-79
2023/11/08 03:05:24;;;;;;;5.60;4.05;;;;;;;8.65;100.00;100278.91;5025468;28;20059;-76
2023/11/08 03:07:56;;;;;;;7.15;4.68;;;;;;;8.69;100.00;100285.81;5038664;28;20049;-78
2023/11/08 03:10:22;;;;;;;4.15;3.63;;;;;;;8.70;100.00;100278.88;5027699;28;20547;-80
2023/11/08 03:12:51;;;;;;;4.65;3.60;;;;;;;8.72;100.00;100278.00;5040435;28;20061;-81
2023/11/08 03:15:21;;;;;;;4.25;3.55;;;;;;;8.69;100.00;100279.75;5041406;28;20053;-77
2023/11/08 03:17:51;;;;;;;5.00;3.33;;;;;;;8.65;100.00;100272.84;5036699;28;20049;-80
2023/11/08 03:20:18;;;;;;;8.20;3.92;;;;;;;8.54;100.00;100278.09;5045951;28;20040;-78
2023/11/08 03:22:46;;;;;;;5.15;3.38;;;;;;;8.64;100.00;100281.53;5040109;28;20051;-80
2023/11/08 03:25:13;;;;;;;4.88;3.90;;;;;;;8.61;100.00;100287.63;5038854;28;20037;-78
2023/11/08 03:27:43;;;;;;;4.18;3.65;;;;;;;8.68;100.00;100280.63;5018228;28;20041;-79
2023/11/08 03:30:13;;;;;;;5.07;4.05;;;;;;;8.58;100.00;100270.25;5039320;28;20041;-80
2023/11/08 03:32:43;;;;;;;6.13;4.22;;;;;;;8.61;100.00;100278.06;5039375;28;20052;-80
2023/11/08 03:35:11;;;;;;;6.18;4.32;;;;;;;8.58;100.00;100272.88;5038118;28;20045;-78
2023/11/08 03:37:39;;;;;;;8.52;3.45;;;;;;;8.57;100.00;100271.13;5041251;28;20156;-82
2023/11/08 03:40:11;;;;;;;9.90;4.25;;;;;;;8.53;100.00;100271.19;5022482;28;20045;-81
2023/11/08 03:42:45;;;;;;;4.78;4.38;;;;;;;8.53;100.00;100281.59;5036388;28;20116;-77
2023/11/08 03:45:12;;;;;;;4.70;4.25;;;;;;;8.56;100.00;100286.78;5037252;28;20040;-86
2023/11/08 03:47:42;;;;;;;5.85;3.85;;;;;;;8.55;100.00;100288.56;5040070;28;20097;-76
2023/11/08 03:50:10;;;;;;;7.65;4.13;;;;;;;8.57;100.00;100283.31;5039321;28;20048;-78
2023/11/08 03:52:36;;;;;;;6.53;4.47;;;;;;;8.55;100.00;100298.09;5036760;28;20136;-77
2023/11/08 03:55:04;;;;;;;4.72;3.75;;;;;;;8.55;100.00;100293.78;5046205;28;20051;-77
2023/11/08 03:57:31;;;;;;;5.60;3.80;;;;;;;8.55;100.00;100305.94;5039606;28;20466;-77
2023/11/08 03:59:57;;;;;;;4.63;3.72;;;;;;;8.51;100.00;100301.63;5042519;28;20055;-82
2023/11/08 04:02:25;;;;;;;5.35;4.85;;;;;;;8.49;100.00;100299.00;5039601;28;20072;-76
2023/11/08 04:04:52;;;;;;;4.30;3.85;;;;;;;8.41;100.00;100292.97;5040757;28;20032;-78
2023/11/08 04:07:19;;;;;;;5.55;4.63;;;;;;;8.38;100.00;100306.88;5028063;28;20135;-77
2023/11/08 04:09:46;;;;;;;4.78;4.35;;;;;;;8.35;100.00;100303.41;5039885;28;20056;-80
2023/11/08 04:12:13;;;;;;;5.13;4.60;;;;;;;8.27;100.00;100306.06;5040173;28;20530;-80
2023/11/08 04:14:40;;;;;;;4.18;3.75;;;;;;;8.28;100.00;100311.25;5042967;28;20053;-76
2023/11/08 04:17:09;;;;;;;4.72;4.20;;;;;;;8.28;100.00;100310.41;5040284;28;20052;-80
2023/11/08 04:19:38;;;;;;;5.25;4.75;;;;;;;8.24;100.00;100306.94;5039098;28;20123;-79
2023/11/08 04:22:09;;;;;;;5.28;4.32;;;;;;;8.25;100.00;100308.69;5026706;28;20132;-81
2023/11/08 04:24:38;;;;;;;6.07;4.70;;;;;;;8.26;100.00;100305.19;5042101;28;20692;-81
2023/11/08 04:27:05;;;;;;;6.00;4.43;;;;;;;8.25;100.00;100303.47;5023657;28;20562;-78
2023/11/08 04:29:32;;;;;;;7.38;4.88;;;;;;;8.28;100.00;100305.19;5042308;28;20672;-81
2023/11/08 04:31:59;;;;;;;7.05;5.45;;;;;;;8.29;100.00;100309.50;5043001;28;20049;-85
2023/11/08 04:34:25;;;;;;;6.50;5.20;;;;;;;8.33;100.00;100295.59;5026686;28;20423;-77
2023/11/08 04:36:52;;;;;;;11.38;5.53;;;;;;;8.36;100.00;100320.81;5029961;28;20101;-78
2023/11/08 04:39:21;;;;;;;6.47;5.03;;;;;;;8.40;100.00;100320.75;5039029;28;20517;-79
2023/11/08 04:41:49;;;;;;;8.25;4.90;;;;;;;8.38;100.00;100309.50;5039246;28;20565;-79
2023/11/08 04:44:16;;;;;;;5.82;5.10;;;;;;;8.42;100.00;100323.34;5041629;28;20084;-79
2023/11/08 04:46:43;;;;;;;8.38;5.55;;;;;;;8.42;100.00;100316.41;5040257;28;20052;-79
2023/11/08 04:49:11;;;;;;;6.90;5.00;;;;;;;8.38;100.00;100319.91;5039103;28;20480;-79
2023/11/08 04:51:38;;;;;;;9.15;5.88;;;;;;;8.43;100.00;100314.66;5040607;28;20040;-77
2023/11/08 04:54:05;;;;;;;8.05;6.25;;;;;;;8.43;100.00;100330.31;5024216;28;20350;-77
2023/11/08 04:56:32;;;;;;;6.22;5.57;;;;;;;8.40;100.00;100327.72;5041144;28;20047;-81
2023/11/08 04:59:00;;;;;;;8.82;5.28;;;;;;;8.49;100.00;100326.84;5036651;28;20060;-80
2023/11/08 05:01:28;;;;;;;6.72;5.75;;;;;;;8.52;100.00;100330.28;5035245;28;20492;-80
2023/11/08 05:03:55;;;;;;;7.88;5.05;;;;;;;8.52;100.00;100332.03;5039658;28;20049;-81
2023/11/08 05:06:22;;;;;;;6.78;5.85;;;;;;;8.52;100.00;100335.50;5043866;28;20052;-80
2023/11/08 05:08:50;;;;;;;11.57;5.95;;;;;;;8.51;100.00;100339.00;5038146;28;20040;-83
2023/11/08 05:11:19;;;;;;;5.70;4.68;;;;;;;8.48;100.00;100339.00;5040643;28;20049;-76
2023/11/08 05:13:46;;;;;;;9.27;5.93;;;;;;;8.47;100.00;100336.41;5043057;28;20076;-85
2023/11/08 05:16:12;;;;;;;5.82;5.22;;;;;;;8.44;100.00;100334.66;5042730;28;20338;-78
2023/11/08 05:18:40;;;;;;;7.13;4.80;;;;;;;8.36;100.00;100333.84;5027492;28;20056;-76
2023/11/08 05:21:06;;;;;;;7.60;5.50;;;;;;;8.27;100.00;100333.00;5037934;28;20076;-77
2023/11/08 05:23:33;;;;;;;5.57;4.80;;;;;;;8.27;100.00;100339.97;5041362;28;20061;-78
2023/11/08 05:26:00;;;;;;;10.00;4.88;;;;;;;8.26;100.00;100346.03;5040125;28;20047;-79
2023/11/08 05:28:26;;;;;;;10.75;5.40;;;;;;;8.31;100.00;100341.69;5037429;28;20055;-78
2023/11/08 05:30:56;;;;;;;6.00;5.32;;;;;;;8.37;100.00;100330.34;5037545;28;20481;-83
2023/11/08 05:33:22;;;;;;;8.23;5.13;;;;;;;8.37;100.00;100336.44;5042386;28;20116;-77
2023/11/08 05:35:49;;;;;;;9.07;5.05;;;;;;;8.38;100.00;100342.50;5041277;28;20128;-76
2023/11/08 05:38:16;;;;;;;5.18;4.78;;;;;;;8.33;100.00;100346.88;5038698;28;20048;-78
2023/11/08 05:40:44;;;;;;;5.45;4.80;;;;;;;8.36;100.00;100345.13;5036472;28;20339;-78
2023/11/08 05:43:10;;;;;;;6.75;5.38;;;;;;;8.36;100.00;100342.53;5031458;28;20158;-75
2023/11/08 05:45:37;;;;;;;6.20;5.32;;;;;;;8.37;100.00;100348.59;5041677;28;20083;-78
2023/11/08 05:48:04;;;;;;;7.00;5.00;;;;;;;8.37;100.00;100356.41;5036849;28;20130;-78
2023/11/08 05:50:30;;;;;;;11.95;5.15;;;;;;;8.37;100.00;100362.53;5039085;28;20469;-82
2023/11/08 05:52:57;;;;;;;10.05;5.28;;;;;;;8.40;100.00;100367.72;5034366;28;20036;-77
2023/11/08 05:55:24;;;;;;;5.85;5.32;;;;;;;8.38;100.00;100369.47;5037600;28;20045;-82
2023/11/08 05:57:50;;;;;;;10.73;5.22;;;;;;;8.44;100.00;100365.97;5037340;28;20119;-79
2023/11/08 06:00:17;;;;;;;11.52;5.72;;;;;;;8.46;100.00;100338.19;5017931;28;20048;-80
2023/11/08 06:02:46;;;;;;;8.68;6.18;;;;;;;8.46;100.00;100361.66;5048931;28;20051;-83
2023/11/08 06:05:13;;;;;;;12.43;6.18;;;;;;;8.37;100.00;100359.03;5035206;28;20120;-79
2023/11/08 06:07:41;;;;;;;8.80;5.93;;;;;;;8.36;100.00;100373.81;5037250;28;20128;-83
2023/11/08 06:10:13;;;;;;;10.27;6.15;;;;;;;8.34;100.00;100362.50;5053908;28;20430;-76
2023/11/08 06:12:39;;;;;;;8.18;6.13;;;;;;;8.42;100.00;100371.19;5037315;28;20041;-77
2023/11/08 06:15:07;;;;;;;12.23;6.60;;;;;;;8.40;100.00;100370.31;5019312;28;20594;-75
2023/11/08 06:17:34;;;;;;;6.95;6.15;;;;;;;8.45;100.00;100372.91;5038294;28;20452;-83
2023/11/08 06:20:01;;;;;;;10.63;6.00;;;;;;;8.49;100.00;100377.28;5030151;28;20037;-79
2023/11/08 06:22:27;;;;;;;11.07;6.28;;;;;;;8.50;100.00;100375.53;5036887;28;20037;-78
2023/11/08 06:24:54;;;;;;;7.88;5.50;;;;;;;8.50;100.00;100375.53;5036481;28;20049;-80
2023/11/08 06:27:20;;;;;;;8.52;5.50;;;;;;;8.53;100.00;100362.47;5038665;28;20544;-79
2023/11/08 06:29:47;;;;;;;9.35;5.57;;;;;;;8.61;100.00;100381.56;5029317;28;20057;-77
2023/11/08 06:32:15;;;;;;;6.22;5.63;;;;;;;8.67;100.00;100385.88;5033535;28;20045;-78
2023/11/08 06:34:46;;;;;;;7.43;5.40;;;;;;;8.65;100.00;100369.38;5035208;28;20052;-82
2023/11/08 06:37:14;;;;;;;7.32;5.50;;;;;;;8.65;100.00;100369.38;5037032;28;20033;-79
2023/11/08 06:39:43;;;;;;;11.35;5.35;;;;;;;8.67;100.00;100385.88;5034421;28;20041;-76
2023/11/08 06:42:11;;;;;;;10.20;6.13;;;;;;;8.66;100.00;100371.13;5033532;28;20144;-79
2023/11/08 06:44:38;;;;;;;6.50;5.55;;;;;;;8.71;100.00;100385.84;5033021;28;20168;-80
2023/11/08 06:47:05;;;;;;;7.72;5.55;;;;;;;8.72;100.00;100384.09;5031528;28;20073;-77
2023/11/08 06:49:31;;;;;;;7.18;4.80;;;;;;;8.74;100.00;100388.44;5031260;28;20114;-77
2023/11/08 06:51:58;;;;;;;9.02;4.90;;;;;;;8.77;100.00;100388.44;5036388;28;20072;-78
2023/11/08 06:54:25;;;;;;;6.03;5.00;;;;;;;8.80;99.93;100397.13;5020386;28;20128;-83
2023/11/08 06:56:52;;;;;;;8.70;5.18;;;;;;;8.81;99.88;100404.06;5038868;28;20632;-81
2023/11/08 06:59:18;;;;;;;5.32;4.82;;;;;;;8.81;99.43;100402.31;5038978;28;20136;-78
2023/11/08 07:01:44;;;;;;;6.75;4.68;;;;;;;8.82;99.22;100393.63;5022270;28;20048;-77
2023/11/08 07:04:12;;;;;;;6.60;4.90;;;;;;;8.83;98.99;100394.50;5017911;28;20041;-77
2023/11/08 07:06:39;;;;;;;6.15;4.68;;;;;;;8.83;99.11;100397.13;5034486;28;20049;-78
2023/11/08 07:09:07;;;;;;;8.07;5.32;;;;;;;8.79;99.13;100409.31;5035720;28;20040;-76
2023/11/08 07:11:33;;;;;;;5.65;4.70;;;;;;;8.80;99.35;100407.56;5041197;28;20036;-79
2023/11/08 07:14:01;;;;;;;8.52;5.22;;;;;;;8.85;99.03;100422.34;5022137;28;20155;-76
2023/11/08 07:16:28;;;;;;;7.10;4.50;;;;;;;8.86;98.25;100404.91;5038830;28;20061;-76
2023/11/08 07:18:55;;;;;;;6.20;5.25;;;;;;;8.88;98.70;100414.47;5033996;28;20049;-81
2023/11/08 07:21:23;;;;;;;5.13;4.70;;;;;;;8.84;98.66;100419.69;5039404;28;20041;-82
2023/11/08 07:23:50;;;;;;;7.03;5.05;;;;;;;8.91;98.20;100427.50;5036454;28;20657;-82
2023/11/08 07:26:17;;;;;;;6.15;4.65;;;;;;;8.95;98.22;100423.13;5037740;28;20069;-78
2023/11/08 07:28:47;;;;;;;10.55;6.97;;;;;;;8.91;97.79;100437.09;5039904;28;20025;-82
2023/11/08 07:31:14;;;;;;;7.25;5.35;;;;;;;8.93;98.06;100440.56;5034183;28;20032;-80
2023/11/08 07:33:42;;;;;;;5.75;5.18;;;;;;;8.94;98.13;100444.88;5039110;28;20112;-76
2023/11/08 07:36:09;;;;;;;6.70;5.82;;;;;;;8.98;98.43;100443.13;5019555;28;20139;-80
2023/11/08 07:38:36;;;;;;;10.75;5.32;;;;;;;8.99;97.98;100440.50;5034919;28;20064;-77
2023/11/08 07:41:05;;;;;;;7.57;5.43;;;;;;;9.03;98.40;100454.41;5035763;28;20049;-80
2023/11/08 07:43:33;;;;;;;12.80;6.38;;;;;;;9.02;97.97;100453.56;5032761;28;20501;-80
2023/11/08 07:46:00;;;;;;;6.05;5.55;;;;;;;9.00;98.23;100457.91;5037756;28;20102;-80
2023/11/08 07:48:27;;;;;;;7.97;6.15;;;;;;;8.97;98.48;100452.72;5041749;28;20037;-79
2023/11/08 07:50:55;;;;;;;14.15;5.90;;;;;;;9.02;98.06;100456.16;5038774;28;20637;-81
2023/11/08 07:53:22;;;;;;;5.25;4.85;;;;;;;9.12;97.89;100461.34;5043737;28;20068;-80
2023/11/08 07:55:50;;;;;;;5.93;5.00;;;;;;;9.23;97.21;100462.13;5038904;28;20041;-77
2023/11/08 07:58:18;;;;;;;5.85;4.78;;;;;;;9.20;97.08;100460.38;5034344;28;20048;-79
2023/11/08 08:00:45;;;;;;;8.95;5.78;;;;;;;9.24;97.15;100469.97;5037260;28;20056;-77
2023/11/08 08:03:15;;;;;;;5.85;5.35;;;;;;;9.25;97.20;100466.44;5038459;28;20044;-82
2023/11/08 08:05:44;;;;;;;11.52;6.10;;;;;;;9.26;97.31;100469.94;5020891;28;20072;-77
2023/11/08 08:08:12;;;;;;;5.72;5.05;;;;;;;9.30;97.46;100466.44;5038860;28;20048;-77
2023/11/08 08:10:40;;;;;;;6.95;4.97;;;;;;;9.31;97.06;100468.19;5037252;28;20084;-77
2023/11/08 08:13:09;;;;;;;6.38;5.00;;;;;;;9.27;97.12;100467.31;5035965;28;20489;-79
2023/11/08 08:15:36;;;;;;;6.47;5.55;;;;;;;9.33;96.98;100471.63;5037396;28;20038;-79
2023/11/08 08:18:03;;;;;;;5.47;4.90;;;;;;;9.40;96.42;100478.56;5035063;28;20040;-80
2023/11/08 08:20:30;;;;;;;8.90;5.45;;;;;;;9.44;96.44;100476.81;5022006;28;20563;-83
2023/11/08 08:22:56;;;;;;;5.85;4.72;;;;;;;9.44;96.46;100489.88;5040164;28;20043;-80
2023/11/08 08:25:24;;;;;;;5.55;5.13;;;;;;;9.41;96.22;100490.75;5035656;28;20518;-78
2023/11/08 08:27:50;;;;;;;5.15;4.65;;;;;;;9.48;96.49;100494.19;5041497;28;20551;-79
2023/11/08 08:30:17;;;;;;;10.32;6.30;;;;;;;9.45;96.36;100488.97;5037117;28;20044;-79
2023/11/08 08:32:48;;;;;;;6.90;5.57;;;;;;;9.42;96.50;100487.22;5034489;28;20417;-77
2023/11/08 08:35:14;;;;;;;5.68;4.85;;;;;;;9.52;96.86;100493.28;5039261;28;20123;-80
2023/11/08 08:37:41;;;;;;;7.50;5.80;;;;;;;9.57;96.11;100494.13;5027693;28;20083;-77
2023/11/08 08:40:10;;;;;;;9.20;5.40;;;;;;;9.55;95.80;100492.38;5037010;28;20052;-76
2023/11/08 08:42:42;;;;;;;5.47;4.93;;;;;;;9.55;96.08;100497.63;5038912;28;20142;-78
2023/11/08 08:45:10;;;;;;;6.88;4.82;;;;;;;9.48;96.24;100495.91;5021853;28;20463;-79
2023/11/08 08:47:38;;;;;;;5.72;4.63;;;;;;;9.56;95.77;100495.00;5038083;28;20068;-78
2023/11/08 08:50:08;;;;;;;7.07;4.95;;;;;;;9.66;95.87;100495.81;5029185;28;20052;-76
2023/11/08 08:52:35;;;;;;;5.82;5.22;;;;;;;9.74;95.40;100500.97;5020149;28;20057;-77
2023/11/08 08:55:02;;;;;;;6.25;4.20;;;;;;;9.80;94.88;100493.06;5044009;28;20059;-81
2023/11/08 08:57:29;;;;;;;5.65;4.28;;;;;;;9.77;94.79;100504.41;5040942;28;20037;-77
2023/11/08 08:59:56;;;;;;;8.10;4.72;;;;;;;9.79;95.08;100503.53;5043508;28;20041;-78
2023/11/08 09:02:25;;;;;;;5.88;4.55;;;;;;;9.81;94.50;100496.56;5038816;28;20276;-79
2023/11/08 09:04:55;;;;;;;6.15;4.70;;;;;;;9.85;93.79;100496.50;5045447;28;20466;-79
2023/11/08 09:07:22;;;;;;;6.68;5.05;;;;;;;9.94;93.46;100496.41;5028001;28;20389;-79
2023/11/08 09:09:49;;;;;;;5.18;4.18;;;;;;;9.83;94.06;100505.22;5044712;28;20055;-77
2023/11/08 09:12:15;;;;;;;4.65;3.88;;;;;;;9.79;94.01;100507.03;5037014;28;20040;-76
2023/11/08 09:14:42;;;;;;;8.63;5.43;;;;;;;9.69;94.71;100518.44;5026250;28;20053;-81
2023/11/08 09:17:09;;;;;;;5.75;4.28;;;;;;;9.75;94.84;100516.63;5041252;28;20127;-79
2023/11/08 09:19:36;;;;;;;3.70;3.40;;;;;;;9.71;94.05;100509.69;5058917;28;20048;-79
2023/11/08 09:22:03;;;;;;;4.55;4.10;;;;;;;9.66;93.89;100500.13;5036075;28;20515;-84
2023/11/08 09:24:30;;;;;;;4.07;3.78;;;;;;;9.70;93.40;100505.34;5040138;28;20133;-80
2023/11/08 09:26:58;;;;;;;5.18;4.20;;;;;;;9.91;93.06;100514.75;5036270;28;20049;-81
2023/11/08 09:29:25;;;;;;;4.75;3.95;;;;;;;9.84;92.04;100500.03;5041779;28;20048;-80
2023/11/08 09:31:52;;;;;;;6.30;4.22;;;;;;;9.93;92.40;100518.25;5037310;28;20056;-78
2023/11/08 09:34:20;;;;;;;5.05;4.45;;;;;;;10.10;91.32;100517.19;5039285;28;20049;-78
2023/11/08 09:36:48;;;;;;;5.32;4.63;;;;;;;9.96;91.24;100509.50;5039482;28;20045;-79
2023/11/08 09:39:16;;;;;;;6.05;4.40;;;;;;;9.99;91.88;100522.53;5038762;28;20052;-81
2023/11/08 09:41:44;;;;;;;8.02;5.93;;;;;;;10.06;91.39;100528.56;5041017;28;20055;-78
2023/11/08 09:44:12;;;;;;;6.82;4.45;;;;;;;9.87;91.65;100526.13;5035648;28;20110;-77
2023/11/08 09:46:41;;;;;;;5.88;4.57;;;;;;;9.98;91.46;100538.25;5038919;28;20060;-81
2023/11/08 09:49:07;;;;;;;6.07;4.43;;;;;;;9.99;91.21;100537.38;5035138;28;20044;-79
2023/11/08 09:51:35;;;;;;;6.20;4.28;;;;;;;9.88;91.13;100535.72;5036947;28;20132;-81
2023/11/08 09:54:04;;;;;;;5.30;4.78;;;;;;;9.89;92.03;100526.97;5036196;28;20128;-78
2023/11/08 09:56:32;;;;;;;6.47;4.25;;;;;;;10.01;91.73;100533.88;5035964;28;20072;-77
2023/11/08 09:59:03;;;;;;;8.52;5.20;;;;;;;10.06;91.38;100526.84;5038676;28;20098;-81
2023/11/08 10:01:32;;;;;;;6.80;4.22;;;;;;;10.22;91.03;100526.69;5036498;28;20048;-77
2023/11/08 10:04:00;;;;;;;5.88;3.67;;;;;;;10.14;89.29;100508.44;5040865;28;20049;-78
2023/11/08 10:06:31;;;;;;;6.10;4.28;;;;;;;10.16;89.00;100522.38;5037376;28;20037;-79
2023/11/08 10:08:58;;;;;;;11.82;3.80;;;;;;;10.22;89.10;100513.59;5021650;28;20056;-79
2023/11/08 10:11:29;;;;;;;5.78;3.97;;;;;;;10.33;89.09;100518.75;5037302;28;20397;-80
2023/11/08 10:13:56;;;;;;;5.18;3.70;;;;;;;10.34;88.91;100508.25;5038384;28;20052;-77
2023/11/08 10:16:24;;;;;;;8.85;4.45;;;;;;;10.37;88.33;100510.88;5036940;28;20040;-79
2023/11/08 10:18:56;;;;;;;6.28;3.55;;;;;;;10.41;87.79;100527.41;5040208;28;20668;-79
2023/11/08 10:21:25;;;;;;;5.88;2.85;;;;;;;10.58;86.68;100508.91;5019876;28;20041;-78
2023/11/08 10:23:54;;;;;;;6.80;2.55;;;;;;;10.75;86.10;100513.94;5037535;28;20037;-78
2023/11/08 10:26:23;;;;;;;6.85;2.70;;;;;;;10.91;84.65;100515.50;5034940;28;20056;-79
2023/11/08 10:29:07;;;;;;;7.72;2.45;;;;;;;10.83;83.79;100522.56;5036716;28;20132;-77
2023/11/08 10:31:39;;;;;;;4.40;2.42;;;;;;;10.70;84.93;100513.13;5039721;28;20121;-78
2023/11/08 10:34:12;;;;;;;6.72;2.67;;;;;;;10.65;84.43;100510.59;5041041;28;20072;-78
2023/11/08 10:36:40;;;;;;;4.28;2.65;;;;;;;10.66;84.47;100508.81;5041460;28;20697;-78
2023/11/08 10:39:13;;;;;;;3.47;2.15;;;;;;;10.64;84.38;100503.59;5042196;28;20076;-79
2023/11/08 10:41:42;;;;;;;6.28;2.47;;;;;;;10.56;84.24;100501.06;5035245;28;20161;-77
2023/11/08 10:44:22;;;;;;;3.53;2.72;;;;;;;10.45;83.80;100496.84;5039485;28;20057;-77
2023/11/08 10:46:59;;;;;;;3.13;1.73;;;;;;;10.43;83.70;100508.19;5042695;28;20347;-76
2023/11/08 10:49:26;;;;;;;5.97;1.70;;;;;;;10.30;82.60;100501.34;5037204;28;20833;-82
2023/11/08 10:51:56;;;;;;;3.35;1.70;;;;;;;10.42;82.28;100502.97;5022784;28;20041;-77
2023/11/08 10:54:23;;;;;;;1.95;1.42;;;;;;;10.39;82.32;100487.28;5041199;28;20049;-78
2023/11/08 10:56:54;;;;;;;3.22;1.58;;;;;;;10.33;81.98;100495.19;5037919;28;20680;-77
2023/11/08 10:59:23;;;;;;;4.35;1.75;;;;;;;10.52;81.91;100488.91;5041081;28;20465;-76
2023/11/08 11:01:50;;;;;;;2.97;2.28;;;;;;;10.51;81.45;100483.69;5035309;28;20082;-76
2023/11/08 11:04:19;;;;;;;3.03;2.25;;;;;;;10.54;81.65;100486.28;5040630;28;20045;-76
2023/11/08 11:06:48;;;;;;;6.20;1.85;;;;;;;10.57;81.56;100481.00;5039905;28;20493;-78
2023/11/08 11:09:16;;;;;;;4.00;1.75;;;;;;;10.73;80.79;100485.16;5040405;28;20052;-80
2023/11/08 11:11:47;;;;;;;6.18;1.92;;;;;;;10.86;80.27;100483.25;5038278;28;20046;-78
2023/11/08 11:14:44;;;;;;;2.30;1.65;;;;;;;10.81;80.12;100481.56;5034351;28;20049;-79
2023/11/08 11:17:30;;;;;;;5.70;2.15;;;;;;;10.92;78.47;100482.31;5022140;28;20504;-79
2023/11/08 11:20:05;;;;;;;3.85;1.65;;;;;;;11.00;77.83;100483.09;5044095;28;20072;-79
2023/11/08 11:22:34;;;;;;;4.43;1.85;;;;;;;11.12;77.80;100489.03;5039056;28;20087;-77
2023/11/08 11:25:01;;;;;;;3.47;1.40;;;;;;;11.12;76.95;100486.41;5044918;28;20072;-78
2023/11/08 11:27:33;;;;;;;1.58;1.13;;;;;;;11.14;76.88;100485.50;5026197;28;20149;-82
2023/11/08 11:30:21;;;;;;;3.72;2.03;;;;;;;11.18;76.45;100478.47;5045894;28;20368;-81
2023/11/08 11:32:53;;;;;;;4.88;1.30;;;;;;;11.16;76.49;100472.38;5044925;28;20111;-76